Time;durP1;ratioP1;P1;durP2;ratioP2;P2;SDS_P1;SDS_P2;PMS_P1;PMS_P2;Temp;Humidity;BMP_temperature;BMP_pressure;BME280_temperature;BME280_humidity;BME280_pressure;Samples;Min_cycle;Max_cycle;Signal;HPM_P1;HPM_P2
2024/01/07 00:00:17;;;;;;;23.23;12.80;;;;;;;-145.18;100.00;46879.19;4991564;28;20606;-73
2024/01/07 00:02:42;;;;;;;25.10;13.73;;;;;;;-145.18;100.00;46881.13;4957824;28;20034;-73
2024/01/07 00:05:07;;;;;;;22.93;13.10;;;;;;;-145.18;100.00;46879.19;4989423;28;20044;-73
2024/01/07 00:07:33;;;;;;;25.83;14.03;;;;;;;-145.18;100.00;46885.03;4989375;28;20487;-73
2024/01/07 00:09:58;;;;;;;26.00;14.13;;;;;;;-145.18;100.00;46879.19;4989497;28;20149;-73
2024/01/07 00:12:25;;;;;;;23.60;12.60;;;;;;;-145.18;100.00;46879.19;4957027;28;20026;-73
2024/01/07 00:14:50;;;;;;;25.07;13.33;;;;;;;-145.18;100.00;46883.09;4975629;28;20030;-73
2024/01/07 00:17:16;;;;;;;25.93;12.53;;;;;;;-145.18;100.00;46887.00;4992834;28;20326;-73
2024/01/07 00:19:41;;;;;;;24.00;12.87;;;;;;;-145.18;100.00;46883.09;4992884;28;20030;-72
2024/01/07 00:22:07;;;;;;;25.07;14.13;;;;;;;-145.18;100.00;46885.03;4994374;28;20502;-73
2024/01/07 00:24:32;;;;;;;23.30;13.23;;;;;;;-145.18;100.00;46885.03;4976926;28;20038;-71
2024/01/07 00:26:57;;;;;;;26.80;14.20;;;;;;;-145.18;100.00;46885.03;4993469;28;20050;-71
2024/01/07 00:29:23;;;;;;;25.47;14.53;;;;;;;-145.18;100.00;46887.00;4992990;28;20038;-73
2024/01/07 00:31:49;;;;;;;27.10;15.17;;;;;;;-145.18;100.00;46888.94;4994806;28;20085;-73
2024/01/07 00:34:14;;;;;;;30.00;15.60;;;;;;;-145.18;100.00;46887.00;4994182;28;20113;-78
2024/01/07 00:36:39;;;;;;;27.90;16.07;;;;;;;-145.18;100.00;46892.84;4993894;28;20136;-78
2024/01/07 00:39:05;;;;;;;27.13;14.83;;;;;;;-145.18;100.00;46887.00;4975443;28;20062;-79
2024/01/07 00:41:31;;;;;;;27.60;15.27;;;;;;;-145.18;100.00;46894.81;4994047;28;20073;-78
2024/01/07 00:43:56;;;;;;;24.00;14.10;;;;;;;-145.18;100.00;46894.81;4993259;28;20272;-78
2024/01/07 00:46:22;;;;;;;29.50;15.60;;;;;;;-145.18;100.00;46892.84;4976695;28;20482;-79
2024/01/07 00:48:47;;;;;;;27.07;14.60;;;;;;;-145.18;100.00;46900.66;4976981;28;20034;-79
2024/01/07 00:51:13;;;;;;;22.13;13.63;;;;;;;-145.18;100.00;46904.56;4993391;28;20065;-79
2024/01/07 00:53:38;;;;;;;25.00;15.07;;;;;;;-145.18;100.00;46898.72;4993916;28;20041;-78
2024/01/07 00:56:04;;;;;;;26.63;14.33;;;;;;;-145.18;100.00;46896.75;4993840;28;20034;-78
2024/01/07 00:58:29;;;;;;;24.73;14.60;;;;;;;-145.18;100.00;46896.75;4993592;28;20042;-78
2024/01/07 01:00:55;;;;;;;23.13;13.17;;;;;;;-145.18;100.00;46902.63;4992382;28;20046;-78
2024/01/07 01:03:20;;;;;;;22.47;13.50;;;;;;;-145.18;100.00;46902.63;4992227;28;20502;-79
2024/01/07 01:05:46;;;;;;;20.33;12.40;;;;;;;-145.18;100.00;46902.63;4992142;28;20443;-79
2024/01/07 01:08:11;;;;;;;21.13;13.43;;;;;;;-145.18;100.00;46906.53;4991517;28;20073;-80
2024/01/07 01:10:37;;;;;;;26.13;13.70;;;;;;;-145.18;100.00;46904.56;4994418;28;20116;-79
2024/01/07 01:13:03;;;;;;;23.30;13.03;;;;;;;-145.18;100.00;46906.53;4993988;28;20113;-78
2024/01/07 01:15:28;;;;;;;23.93;14.07;;;;;;;-145.18;100.00;46906.53;4993712;28;20045;-79
2024/01/07 01:17:53;;;;;;;22.43;13.20;;;;;;;-145.18;100.00;46904.56;4993976;28;20280;-79
2024/01/07 01:20:19;;;;;;;23.00;13.17;;;;;;;-145.18;100.00;46900.66;4976511;28;20038;-78
2024/01/07 01:22:44;;;;;;;24.30;13.77;;;;;;;-145.18;100.00;46906.53;4975996;28;20041;-78
2024/01/07 01:25:10;;;;;;;21.87;12.43;;;;;;;-145.18;100.00;46910.44;4993052;28;20049;-78
2024/01/07 01:27:36;;;;;;;21.63;12.27;;;;;;;-145.18;100.00;46906.53;4992611;28;20526;-78
2024/01/07 01:30:02;;;;;;;23.63;12.67;;;;;;;-145.18;100.00;46908.47;4993390;28;20483;-78
2024/01/07 01:32:27;;;;;;;24.57;13.43;;;;;;;-145.18;100.00;46912.38;4990950;28;20279;-79
2024/01/07 01:34:53;;;;;;;23.80;14.07;;;;;;;-145.18;100.00;46912.38;4991782;28;20534;-79
2024/01/07 01:37:18;;;;;;;25.10;15.00;;;;;;;-145.18;100.00;46912.38;4993600;28;20034;-79
2024/01/07 01:39:43;;;;;;;24.33;13.30;;;;;;;-145.18;100.00;46914.34;4993860;28;20065;-79
2024/01/07 01:42:09;;;;;;;22.23;12.87;;;;;;;-145.18;100.00;46916.28;4974939;28;20065;-80
2024/01/07 01:44:34;;;;;;;23.60;13.53;;;;;;;-145.18;100.00;46912.38;4993382;28;20125;-80
2024/01/07 01:47:01;;;;;;;22.70;13.17;;;;;;;-145.18;100.00;46918.25;4993407;28;20113;-79
2024/01/07 01:49:27;;;;;;;23.20;13.87;;;;;;;-145.18;100.00;46916.28;4992058;28;20034;-80
2024/01/07 01:51:53;;;;;;;26.27;13.70;;;;;;;-145.18;100.00;46920.19;4992799;28;20335;-79
2024/01/07 01:54:19;;;;;;;22.47;13.13;;;;;;;-145.18;100.00;46918.25;4992742;28;20291;-79
2024/01/07 01:56:45;;;;;;;23.83;13.90;;;;;;;-145.18;100.00;46918.25;4991849;28;20058;-79
2024/01/07 01:59:12;;;;;;;24.07;13.43;;;;;;;-145.18;100.00;46918.25;4977370;28;20279;-79
2024/01/07 02:01:38;;;;;;;22.73;13.57;;;;;;;-145.18;100.00;46918.25;4991531;28;20256;-78
2024/01/07 02:04:03;;;;;;;24.73;13.43;;;;;;;-145.18;100.00;46912.38;4991802;28;20307;-79
2024/01/07 02:06:29;;;;;;;22.17;12.83;;;;;;;-145.18;100.00;46918.25;4992861;28;20394;-79
2024/01/07 02:08:55;;;;;;;23.97;13.40;;;;;;;-145.18;100.00;46922.16;4992534;28;20125;-79
2024/01/07 02:11:22;;;;;;;24.60;13.50;;;;;;;-145.18;100.00;46916.28;4989158;28;20486;-79
2024/01/07 02:13:48;;;;;;;23.33;14.47;;;;;;;-145.18;100.00;46916.28;4989369;28;20030;-80
2024/01/07 02:16:14;;;;;;;25.33;12.97;;;;;;;-145.18;100.00;46918.25;4989215;28;20290;-80
2024/01/07 02:18:41;;;;;;;25.77;13.30;;;;;;;-145.18;100.00;46920.19;4991160;28;20109;-79
2024/01/07 02:21:08;;;;;;;25.50;14.10;;;;;;;-145.18;100.00;46920.19;4975648;28;20036;-80
2024/01/07 02:23:34;;;;;;;24.67;13.03;;;;;;;-145.18;100.00;46926.06;4993205;28;20311;-79
2024/01/07 02:25:59;;;;;;;24.53;13.87;;;;;;;-145.18;100.00;46922.16;4991271;28;20296;-80
2024/01/07 02:28:24;;;;;;;23.67;13.33;;;;;;;-145.18;100.00;46924.09;4992438;28;20065;-80
2024/01/07 02:30:50;;;;;;;25.13;14.37;;;;;;;-145.18;100.00;46918.25;4991242;28;20092;-80
2024/01/07 02:33:15;;;;;;;27.10;15.10;;;;;;;-145.18;100.00;46922.16;4975030;28;20044;-79
2024/01/07 02:35:41;;;;;;;25.40;14.07;;;;;;;-145.18;100.00;46920.19;4990319;28;20545;-79
2024/01/07 02:38:06;;;;;;;23.57;14.17;;;;;;;-145.18;100.00;46926.06;4989281;28;20107;-80
2024/01/07 02:40:31;;;;;;;25.33;14.23;;;;;;;-145.18;100.00;46924.09;4990499;28;20656;-79
2024/01/07 02:42:58;;;;;;;27.33;15.20;;;;;;;-145.18;100.00;46924.09;4990928;28;20034;-79
2024/01/07 02:45:23;;;;;;;27.87;14.80;;;;;;;-145.18;100.00;46924.09;4975258;28;20442;-79
2024/01/07 02:47:48;;;;;;;27.13;15.27;;;;;;;-145.18;100.00;46926.06;4990906;28;20280;-79
2024/01/07 02:50:14;;;;;;;24.57;14.17;;;;;;;-145.18;100.00;46920.19;4992221;28;20108;-79
2024/01/07 02:52:39;;;;;;;26.53;14.87;;;;;;;-145.18;100.00;46926.06;4992206;28;20380;-80
2024/01/07 02:55:06;;;;;;;24.50;13.70;;;;;;;-145.18;100.00;46926.06;4985763;28;20065;-79
2024/01/07 02:57:32;;;;;;;26.13;14.90;;;;;;;-145.18;100.00;46922.16;4991282;28;20038;-80
2024/01/07 02:59:57;;;;;;;27.90;14.67;;;;;;;-145.18;100.00;46922.16;4974972;28;20295;-78
2024/01/07 03:02:23;;;;;;;28.97;14.80;;;;;;;-145.18;100.00;46926.06;4988631;28;20405;-79
2024/01/07 03:04:48;;;;;;;31.17;14.70;;;;;;;-145.18;100.00;46924.09;4989830;28;20042;-80
2024/01/07 03:07:13;;;;;;;31.47;15.50;;;;;;;-145.18;100.00;46916.28;4971650;28;20483;-79
2024/01/07 03:09:39;;;;;;;27.50;14.70;;;;;;;-145.18;100.00;46922.16;4993008;28;20141;-79
2024/01/07 03:12:04;;;;;;;30.17;15.83;;;;;;;-145.18;100.00;46918.25;4991247;28;20479;-79
2024/01/07 03:14:30;;;;;;;28.63;14.73;;;;;;;-145.18;100.00;46922.16;4988437;28;20168;-80
2024/01/07 03:16:55;;;;;;;30.87;15.67;;;;;;;-145.18;100.00;46922.16;4981845;28;20489;-79
2024/01/07 03:19:21;;;;;;;31.80;15.50;;;;;;;-145.18;100.00;46918.25;4991679;28;20085;-79
2024/01/07 03:21:47;;;;;;;31.20;14.87;;;;;;;-145.18;100.00;46922.16;4990427;28;20033;-79
2024/01/07 03:24:13;;;;;;;32.87;16.77;;;;;;;-145.18;100.00;46922.16;4990216;28;20486;-79
2024/01/07 03:26:38;;;;;;;36.37;17.40;;;;;;;-145.18;100.00;46916.28;4969000;28;20276;-79
2024/01/07 03:29:03;;;;;;;36.23;16.00;;;;;;;-145.18;100.00;46922.16;4991967;28;20070;-79
2024/01/07 03:31:29;;;;;;;32.97;16.67;;;;;;;-145.18;100.00;46922.16;4976880;28;20034;-79
2024/01/07 03:33:54;;;;;;;35.20;17.43;;;;;;;-145.18;100.00;46920.19;4991743;28;20046;-79
2024/01/07 03:36:20;;;;;;;38.10;18.00;;;;;;;-145.18;100.00;46924.09;4978274;28;21387;-79
2024/01/07 03:38:45;;;;;;;31.50;16.43;;;;;;;-145.18;100.00;46920.19;4990327;28;20030;-79
2024/01/07 03:41:19;;;;;;;35.73;17.27;;;;;;;-145.18;100.00;46924.09;4973912;28;20035;-79
2024/01/07 03:43:46;;;;;;;33.90;17.83;;;;;;;-145.18;100.00;46922.16;4991325;28;20057;-80
2024/01/07 03:46:12;;;;;;;40.90;19.20;;;;;;;-145.18;100.00;46924.09;4991371;28;20303;-79
2024/01/07 03:48:37;;;;;;;32.93;17.67;;;;;;;-145.18;100.00;46928.00;4982157;28;20296;-80
2024/01/07 03:51:02;;;;;;;38.07;18.17;;;;;;;-145.18;100.00;46924.09;4995573;28;20089;-79
2024/01/07 03:53:28;;;;;;;42.53;20.67;;;;;;;-145.18;100.00;46920.19;4983025;28;20037;-79
2024/01/07 03:55:53;;;;;;;36.43;17.10;;;;;;;-145.18;100.00;46924.09;4994951;28;20479;-80
2024/01/07 03:58:18;;;;;;;39.27;19.07;;;;;;;-145.18;100.00;46929.97;4994832;28;20027;-80
2024/01/07 04:00:44;;;;;;;36.37;17.73;;;;;;;-145.18;100.00;46926.06;4994699;28;20143;-79
2024/01/07 04:03:09;;;;;;;37.70;19.33;;;;;;;-145.18;100.00;46928.00;4977663;28;20509;-79
2024/01/07 04:05:35;;;;;;;34.83;17.63;;;;;;;-145.18;100.00;46931.91;4976999;28;20125;-79
2024/01/07 04:08:01;;;;;;;38.10;18.33;;;;;;;-145.18;100.00;46924.09;4963521;28;20034;-79
2024/01/07 04:10:27;;;;;;;39.67;19.03;;;;;;;-145.18;100.00;46929.97;4994702;28;20037;-78
2024/01/07 04:12:52;;;;;;;40.87;18.30;;;;;;;-145.18;100.00;46928.00;4977511;28;20259;-79
2024/01/07 04:15:17;;;;;;;38.33;19.23;;;;;;;-145.18;100.00;46928.00;4993824;28;20411;-79
2024/01/07 04:17:43;;;;;;;39.73;19.93;;;;;;;-145.18;100.00;46926.06;4993311;28;20042;-79
2024/01/07 04:20:08;;;;;;;40.33;18.97;;;;;;;-145.18;100.00;46926.06;4995101;28;20039;-79
2024/01/07 04:22:34;;;;;;;40.97;18.97;;;;;;;-145.18;100.00;46928.00;4994478;28;20057;-73
2024/01/07 04:24:59;;;;;;;38.40;19.63;;;;;;;-145.18;100.00;46920.19;4994870;28;20057;-74
2024/01/07 04:27:24;;;;;;;41.53;20.63;;;;;;;-145.18;100.00;46924.09;4993569;28;20065;-73
2024/01/07 04:29:50;;;;;;;39.90;18.33;;;;;;;-145.18;100.00;46924.09;4994496;28;20045;-73
2024/01/07 04:32:16;;;;;;;46.00;21.63;;;;;;;-145.18;100.00;46929.97;4978385;28;20034;-73
2024/01/07 04:34:41;;;;;;;42.07;20.53;;;;;;;-145.18;100.00;46922.16;4987056;28;20098;-73
2024/01/07 04:37:06;;;;;;;44.53;21.60;;;;;;;-145.18;100.00;46924.09;4994006;28;20034;-73
2024/01/07 04:39:32;;;;;;;44.57;21.97;;;;;;;-145.18;100.00;46926.06;4960922;28;20042;-73
2024/01/07 04:41:57;;;;;;;45.77;21.80;;;;;;;-145.18;100.00;46926.06;4976556;28;20038;-73
2024/01/07 04:44:23;;;;;;;43.70;20.93;;;;;;;-145.18;100.00;46922.16;4977374;28;20038;-73
2024/01/07 04:46:49;;;;;;;45.43;20.77;;;;;;;-145.18;100.00;46926.06;4994307;28;20038;-73
2024/01/07 04:49:14;;;;;;;42.47;21.57;;;;;;;-145.18;100.00;46928.00;4993172;28;20038;-73
2024/01/07 04:51:40;;;;;;;46.90;22.37;;;;;;;-145.18;100.00;46924.09;4992200;28;20667;-73
2024/01/07 04:54:08;;;;;;;49.30;22.33;;;;;;;-145.18;100.00;46924.09;4991119;28;20450;-73
2024/01/07 04:56:33;;;;;;;40.23;19.57;;;;;;;-145.18;100.00;46924.09;4990799;28;20034;-73
2024/01/07 04:58:59;;;;;;;44.07;20.00;;;;;;;-145.18;100.00;46924.09;4983611;28;20787;-73
2024/01/07 05:01:24;;;;;;;45.67;21.23;;;;;;;-145.18;100.00;46926.06;4994311;28;20042;-71
2024/01/07 05:03:49;;;;;;;43.43;22.07;;;;;;;-145.18;100.00;46924.09;4994160;28;20053;-72
2024/01/07 05:06:15;;;;;;;45.37;21.57;;;;;;;-145.18;100.00;46926.06;4993968;28;21422;-71
2024/01/07 05:08:41;;;;;;;42.20;21.70;;;;;;;-145.18;100.00;46926.06;4993465;28;20027;-73
2024/01/07 05:11:07;;;;;;;48.03;21.27;;;;;;;-145.18;100.00;46928.00;4988149;28;20034;-73
2024/01/07 05:13:33;;;;;;;43.23;22.20;;;;;;;-145.18;100.00;46924.09;4991760;28;20826;-73
2024/01/07 05:15:58;;;;;;;42.77;21.47;;;;;;;-145.18;100.00;46922.16;4991546;28;20030;-73
2024/01/07 05:18:24;;;;;;;45.83;22.40;;;;;;;-145.18;100.00;46926.06;4991607;28;20582;-73
2024/01/07 05:20:50;;;;;;;40.63;20.37;;;;;;;-145.18;100.00;46928.00;4958856;28;20045;-73
2024/01/07 05:23:16;;;;;;;45.13;21.57;;;;;;;-145.18;100.00;46929.97;4992720;28;20034;-73
2024/01/07 05:25:45;;;;;;;41.23;20.43;;;;;;;-145.18;100.00;46928.00;4992478;28;20062;-73
2024/01/07 05:28:11;;;;;;;44.43;21.37;;;;;;;-145.18;100.00;46928.00;4991501;28;20072;-72
2024/01/07 05:30:38;;;;;;;49.00;21.63;;;;;;;-145.18;100.00;46926.06;4992870;28;20279;-73
2024/01/07 05:33:04;;;;;;;42.40;21.00;;;;;;;-145.18;100.00;46933.88;4993743;28;20272;-73
2024/01/07 05:35:29;;;;;;;44.67;21.37;;;;;;;-145.18;100.00;46931.91;4992432;28;20710;-73
2024/01/07 05:37:55;;;;;;;48.77;20.40;;;;;;;-145.18;100.00;46928.00;4992471;28;20276;-73
2024/01/07 05:40:22;;;;;;;48.10;20.93;;;;;;;-145.18;100.00;46931.91;4992362;28;20030;-73
2024/01/07 05:42:47;;;;;;;45.40;21.60;;;;;;;-145.18;100.00;46929.97;4993235;28;20095;-73
2024/01/07 05:45:12;;;;;;;44.27;21.53;;;;;;;-145.18;100.00;46935.81;4993465;28;20259;-73
2024/01/07 05:47:38;;;;;;;41.23;20.80;;;;;;;-145.18;100.00;46929.97;4993064;28;20034;-73
2024/01/07 05:50:04;;;;;;;44.83;21.40;;;;;;;-145.18;100.00;46931.91;4975663;28;20482;-73
2024/01/07 05:52:29;;;;;;;46.07;21.73;;;;;;;-145.18;100.00;46928.00;4991798;28;20038;-73
2024/01/07 05:54:55;;;;;;;47.07;21.50;;;;;;;-145.18;100.00;46929.97;4990941;28;20299;-73
2024/01/07 05:57:20;;;;;;;51.87;22.20;;;;;;;-145.18;100.00;46935.81;4990338;28;20169;-73
2024/01/07 05:59:46;;;;;;;47.83;22.70;;;;;;;-145.18;100.00;46933.88;4990947;28;20045;-73
2024/01/07 06:02:12;;;;;;;48.43;21.87;;;;;;;-145.18;100.00;46931.91;4975257;28;20145;-73
2024/01/07 06:04:38;;;;;;;48.67;22.08;;;;;;;-145.18;100.00;46929.97;4975538;28;20148;-73
2024/01/07 06:07:04;;;;;;;45.77;22.03;;;;;;;-145.18;100.00;46929.97;4975050;28;20370;-73
2024/01/07 06:09:29;;;;;;;51.63;22.80;;;;;;;-145.18;100.00;46935.81;4974787;28;20268;-73
2024/01/07 06:11:55;;;;;;;45.00;21.53;;;;;;;-145.18;100.00;46929.97;4975068;28;20049;-72
2024/01/07 06:14:22;;;;;;;49.57;22.90;;;;;;;-145.18;100.00;46931.91;4992336;28;20041;-74
2024/01/07 06:16:47;;;;;;;45.70;20.50;;;;;;;-145.18;100.00;46933.88;4991243;28;20022;-73
2024/01/07 06:19:14;;;;;;;44.47;21.23;;;;;;;-145.18;100.00;46928.00;4991094;28;20354;-74
2024/01/07 06:21:40;;;;;;;47.63;21.57;;;;;;;-145.18;100.00;46929.97;4970268;28;20030;-73
2024/01/07 06:24:07;;;;;;;44.53;21.17;;;;;;;-145.18;100.00;46926.06;4989487;28;20264;-73
2024/01/07 06:26:33;;;;;;;45.10;20.37;;;;;;;-145.18;100.00;46928.00;4992268;28;20745;-73
2024/01/07 06:28:58;;;;;;;46.67;22.07;;;;;;;-145.18;100.00;46929.97;4992379;28;20288;-73
2024/01/07 06:31:24;;;;;;;44.70;22.10;;;;;;;-145.18;100.00;46926.06;4975134;28;20168;-73
2024/01/07 06:33:49;;;;;;;42.23;19.90;;;;;;;-145.18;100.00;46926.06;4990174;28;20035;-73
2024/01/07 06:36:14;;;;;;;38.03;20.47;;;;;;;-145.18;100.00;46929.97;4992483;28;20038;-73
2024/01/07 06:38:40;;;;;;;41.33;20.00;;;;;;;-145.18;100.00;46924.09;4992568;28;20121;-73
2024/01/07 06:41:05;;;;;;;42.33;21.07;;;;;;;-145.18;100.00;46920.19;4974775;28;20057;-74
2024/01/07 06:43:32;;;;;;;40.60;20.53;;;;;;;-145.18;100.00;46924.09;4994340;28;20034;-73
2024/01/07 06:45:57;;;;;;;37.23;19.10;;;;;;;-145.18;100.00;46918.25;4975113;28;20117;-73
2024/01/07 06:48:22;;;;;;;35.63;19.10;;;;;;;-145.18;100.00;46918.25;4991049;28;20405;-73
2024/01/07 06:50:48;;;;;;;38.80;19.73;;;;;;;-145.18;100.00;46918.25;4997402;28;20045;-73
2024/01/07 06:53:13;;;;;;;34.90;18.13;;;;;;;-145.18;100.00;46918.25;4993868;28;20026;-73
2024/01/07 06:55:39;;;;;;;35.70;18.70;;;;;;;-145.18;100.00;46914.34;4991599;28;20439;-73
2024/01/07 06:58:04;;;;;;;33.33;17.63;;;;;;;-145.18;100.00;46914.34;4974218;28;20042;-75
2024/01/07 07:00:30;;;;;;;34.97;18.80;;;;;;;-145.18;100.00;46912.38;4991374;28;20030;-73
2024/01/07 07:02:55;;;;;;;36.23;18.50;;;;;;;-145.18;100.00;46912.38;4991949;28;20030;-73
2024/01/07 07:05:21;;;;;;;32.07;17.23;;;;;;;-145.18;100.00;46908.47;4985984;28;20046;-73
2024/01/07 07:07:46;;;;;;;37.10;17.40;;;;;;;-145.18;100.00;46910.44;4991895;28;20113;-73
2024/01/07 07:10:12;;;;;;;31.37;16.63;;;;;;;-145.18;100.00;46908.47;4990069;28;20130;-73
2024/01/07 07:12:37;;;;;;;34.03;17.47;;;;;;;-145.18;100.00;46906.53;4991038;28;20037;-79
2024/01/07 07:15:03;;;;;;;32.77;18.13;;;;;;;-145.18;100.00;46900.66;4992076;28;20501;-79
2024/01/07 07:17:28;;;;;;;28.43;15.27;;;;;;;-145.18;100.00;46900.66;4973455;28;20129;-79
2024/01/07 07:19:53;;;;;;;29.97;16.03;;;;;;;-145.18;100.00;46900.66;4990549;28;20039;-78
2024/01/07 07:22:19;;;;;;;28.70;17.07;;;;;;;-145.18;100.00;46894.81;4991974;28;20431;-79
2024/01/07 07:24:44;;;;;;;28.50;16.17;;;;;;;-145.18;100.00;46894.81;4990201;28;20042;-80
2024/01/07 07:27:09;;;;;;;28.63;15.33;;;;;;;-145.18;100.00;46890.91;4994162;28;20066;-78
2024/01/07 07:29:35;;;;;;;28.47;15.40;;;;;;;-145.18;100.00;46888.94;4994278;28;20045;-79
2024/01/07 07:32:00;;;;;;;33.43;16.10;;;;;;;-145.18;100.00;46890.91;4995887;28;20034;-79
2024/01/07 07:34:26;;;;;;;29.67;15.10;;;;;;;-145.18;100.00;46885.03;4994573;28;20061;-80
2024/01/07 07:36:51;;;;;;;29.43;16.37;;;;;;;-145.18;100.00;46888.94;4994908;28;20065;-78
2024/01/07 07:39:17;;;;;;;28.60;15.87;;;;;;;-145.18;100.00;46887.00;4995539;28;20105;-78
2024/01/07 07:41:42;;;;;;;27.30;14.33;;;;;;;-145.18;100.00;46881.13;4994053;28;20100;-78
2024/01/07 07:44:08;;;;;;;32.37;15.73;;;;;;;-145.18;100.00;46885.03;4994492;28;20113;-78
2024/01/07 07:46:33;;;;;;;29.33;16.33;;;;;;;-145.18;100.00;46883.09;4992004;28;20092;-78
2024/01/07 07:48:58;;;;;;;26.87;15.47;;;;;;;-145.18;100.00;46883.09;4992721;28;20042;-79
2024/01/07 07:51:24;;;;;;;26.03;15.93;;;;;;;-145.18;100.00;46885.03;4973607;28;20077;-78
2024/01/07 07:53:49;;;;;;;29.87;16.67;;;;;;;-145.18;100.00;46885.03;4971319;28;20050;-78
2024/01/07 07:56:14;;;;;;;28.40;15.73;;;;;;;-145.18;100.00;46883.09;4991649;28;20489;-78
2024/01/07 07:58:40;;;;;;;28.30;15.30;;;;;;;-145.18;100.00;46879.19;4989838;28;20037;-78
2024/01/07 08:01:06;;;;;;;27.97;14.43;;;;;;;-145.18;100.00;46879.19;4990806;28;20101;-78
2024/01/07 08:03:32;;;;;;;28.13;15.87;;;;;;;-145.18;100.00;46879.19;4990923;28;20034;-78
2024/01/07 08:05:57;;;;;;;29.27;15.97;;;;;;;-145.18;100.00;46881.13;4989983;28;20355;-78
2024/01/07 08:08:22;;;;;;;31.80;17.03;;;;;;;-145.18;100.00;46879.19;4991144;28;20112;-78
2024/01/07 08:10:48;;;;;;;35.03;17.97;;;;;;;-145.18;100.00;46875.28;4991998;28;20038;-78
2024/01/07 08:13:13;;;;;;;31.50;16.20;;;;;;;-145.18;100.00;46875.28;4992020;28;20041;-78
2024/01/07 08:15:39;;;;;;;29.77;17.27;;;;;;;-145.18;100.00;46875.28;4989608;28;20057;-78
2024/01/07 08:18:05;;;;;;;28.00;16.60;;;;;;;-145.18;100.00;46877.22;4990385;28;20034;-78
2024/01/07 08:20:30;;;;;;;26.00;14.77;;;;;;;-145.18;100.00;46873.31;4988212;28;20038;-78
2024/01/07 08:22:56;;;;;;;27.50;15.87;;;;;;;-145.18;100.00;46869.41;4991086;28;20048;-78
2024/01/07 08:25:23;;;;;;;27.17;15.53;;;;;;;-145.18;100.00;46873.31;4990760;28;20046;-78
2024/01/07 08:27:48;;;;;;;30.17;15.07;;;;;;;-145.18;100.00;46875.28;4989894;28;20046;-78
2024/01/07 08:30:14;;;;;;;27.73;14.93;;;;;;;-145.18;100.00;46869.41;4990517;28;20337;-78
2024/01/07 08:32:40;;;;;;;27.37;15.67;;;;;;;-145.18;100.00;46871.38;4990600;28;20053;-73
2024/01/07 08:35:06;;;;;;;26.70;15.30;;;;;;;-145.18;100.00;46869.41;4990008;28;20041;-73
2024/01/07 08:37:31;;;;;;;27.30;15.27;;;;;;;-145.18;100.00;46867.44;4973786;28;20264;-73
2024/01/07 08:39:57;;;;;;;29.67;15.67;;;;;;;-145.18;100.00;46867.44;4989508;28;20041;-72
2024/01/07 08:42:23;;;;;;;28.23;14.87;;;;;;;-145.18;100.00;46869.41;4990567;28;20148;-73
2024/01/07 08:44:49;;;;;;;27.63;14.68;;;;;;;-145.18;100.00;46869.41;4987088;28;20113;-73
2024/01/07 08:47:14;;;;;;;27.20;15.13;;;;;;;-145.18;100.00;46869.41;4973384;28;20033;-73
2024/01/07 08:49:40;;;;;;;25.63;14.83;;;;;;;-145.18;100.00;46873.31;4987878;28;20042;-73
2024/01/07 08:52:05;;;;;;;29.13;15.73;;;;;;;-145.18;100.00;46867.44;4990389;28;20046;-73
2024/01/07 08:54:30;;;;;;;28.27;15.63;;;;;;;-145.18;100.00;46867.44;4989680;28;20044;-73
2024/01/07 08:56:56;;;;;;;25.67;15.77;;;;;;;-145.18;100.00;46871.38;4986532;28;20492;-73
2024/01/07 08:59:21;;;;;;;26.77;15.20;;;;;;;-145.18;100.00;46865.50;4990236;28;20117;-73
2024/01/07 09:01:47;;;;;;;28.10;16.20;;;;;;;-145.18;100.00;46869.41;4988694;28;20038;-73
2024/01/07 09:04:12;;;;;;;26.87;16.00;;;;;;;-145.18;100.00;46865.50;4989833;28;20081;-73
2024/01/07 09:06:38;;;;;;;28.70;17.23;;;;;;;-145.18;100.00;46871.38;4990598;28;20065;-73
2024/01/07 09:09:06;;;;;;;29.33;17.07;;;;;;;-145.18;100.00;46869.41;4989971;28;20509;-73
2024/01/07 09:11:32;;;;;;;29.73;16.92;;;;;;;-145.18;100.00;46871.38;4990519;28;20037;-73
2024/01/07 09:13:57;;;;;;;30.43;16.50;;;;;;;-145.18;100.00;46865.50;4983875;28;20030;-73
2024/01/07 09:16:22;;;;;;;29.13;17.47;;;;;;;-145.18;100.00;46861.59;4989557;28;20372;-73
2024/01/07 09:18:48;;;;;;;26.27;15.37;;;;;;;-145.18;100.00;46865.50;4989097;28;20037;-73
2024/01/07 09:21:15;;;;;;;28.23;15.67;;;;;;;-145.18;100.00;46861.59;4992325;28;20406;-73
2024/01/07 09:23:41;;;;;;;41.03;21.25;;;;;;;-145.18;100.00;46859.63;4987765;28;20045;-73
2024/01/07 09:26:07;;;;;;;30.42;16.77;;;;;;;-145.18;100.00;46859.63;4979036;28;20028;-73
2024/01/07 09:28:32;;;;;;;31.07;18.00;;;;;;;-145.18;100.00;46855.72;4992641;28;20421;-73
2024/01/07 09:30:58;;;;;;;30.90;18.00;;;;;;;-145.18;100.00;46851.81;5003520;28;20512;-73
2024/01/07 09:33:23;;;;;;;37.00;19.20;;;;;;;-145.18;100.00;46851.81;4992824;28;20035;-73
2024/01/07 09:35:50;;;;;;;32.73;19.73;;;;;;;-145.18;100.00;46857.69;4992465;28;20383;-73
2024/01/07 09:38:16;;;;;;;27.83;16.42;;;;;;;-145.18;100.00;46855.72;4990381;28;20435;-73
2024/01/07 09:40:41;;;;;;;24.45;15.05;;;;;;;-145.18;100.00;46849.88;4990305;28;20057;-73
2024/01/07 09:43:08;;;;;;;26.30;14.83;;;;;;;-145.18;100.00;46851.81;4992653;28;20084;-73
2024/01/07 09:45:36;;;;;;;26.40;14.38;;;;;;;-145.18;100.00;46853.78;4990099;28;20038;-73
2024/01/07 09:48:02;;;;;;;24.95;13.85;;;;;;;-145.18;100.00;46851.81;4991824;28;20069;-73
2024/01/07 09:50:27;;;;;;;21.33;13.03;;;;;;;-145.18;100.00;46845.97;4989316;28;20034;-73
2024/01/07 09:52:57;;;;;;;19.83;13.13;;;;;;;-145.18;100.00;46844.00;4993170;28;20113;-72
2024/01/07 09:55:30;;;;;;;21.70;13.00;;;;;;;-145.18;100.00;46844.00;4992507;28;20113;-73
2024/01/07 09:57:55;;;;;;;23.00;11.88;;;;;;;-145.18;100.00;46838.16;4992773;28;20026;-72
2024/01/07 10:00:21;;;;;;;18.00;10.85;;;;;;;-145.18;100.00;46840.09;4958550;28;20040;-73
2024/01/07 10:02:46;;;;;;;21.27;11.20;;;;;;;-145.18;100.00;46838.16;4990600;28;20030;-73
2024/01/07 10:05:12;;;;;;;21.23;12.77;;;;;;;-145.18;100.00;46840.09;4992800;28;20110;-73
2024/01/07 10:07:38;;;;;;;21.97;11.43;;;;;;;-145.18;100.00;46840.09;4992122;28;20058;-73
2024/01/07 10:10:14;;;;;;;19.73;11.37;;;;;;;-145.18;100.00;46840.09;4992350;28;20113;-73
2024/01/07 10:12:39;;;;;;;19.30;12.35;;;;;;;-145.18;100.00;46844.00;4992543;28;20034;-78
2024/01/07 10:15:05;;;;;;;20.97;11.03;;;;;;;-145.18;100.00;46845.97;4993062;28;20037;-78
2024/01/07 10:17:30;;;;;;;19.63;11.57;;;;;;;-145.18;100.00;46845.97;4990728;28;20124;-78
2024/01/07 10:19:56;;;;;;;22.23;12.67;;;;;;;-145.18;100.00;46840.09;4992543;28;20446;-78
2024/01/07 10:22:22;;;;;;;22.37;12.33;;;;;;;-145.18;100.00;46847.91;4992086;28;20033;-77
2024/01/07 10:24:49;;;;;;;20.63;12.07;;;;;;;-145.18;100.00;46844.00;4992846;28;20035;-78
2024/01/07 10:27:14;;;;;;;19.50;11.55;;;;;;;-145.18;100.00;46847.91;4991784;28;20038;-78
2024/01/07 10:29:40;;;;;;;20.80;11.87;;;;;;;-145.18;100.00;46842.06;4991269;28;20524;-78
2024/01/07 10:32:06;;;;;;;21.13;12.07;;;;;;;-145.18;100.00;46849.88;4972209;28;20034;-78
2024/01/07 10:34:32;;;;;;;18.03;11.77;;;;;;;-145.18;100.00;46845.97;4989565;28;20109;-78
2024/01/07 10:37:02;;;;;;;19.95;12.20;;;;;;;-145.18;100.00;46845.97;4988939;28;20081;-78
2024/01/07 10:39:28;;;;;;;20.98;11.52;;;;;;;-145.18;100.00;46847.91;4991256;28;20022;-78
2024/01/07 10:41:58;;;;;;;20.38;11.57;;;;;;;-145.18;100.00;46847.91;4988606;28;20398;-78
2024/01/07 10:44:29;;;;;;;18.13;11.00;;;;;;;-145.18;100.00;46847.91;4989761;28;20097;-78
2024/01/07 10:46:55;;;;;;;20.23;11.18;;;;;;;-145.18;100.00;46847.91;4988030;28;20045;-78